Time;durP1;ratioP1;P1;durP2;ratioP2;P2;SDS_P1;SDS_P2;PMS_P1;PMS_P2;Temp;Humidity;BMP_temperature;BMP_pressure;BME280_temperature;BME280_humidity;BME280_pressure;Samples;Min_cycle;Max_cycle;Signal;HPM_P1;HPM_P2
2023/02/22 00:01:17;;;;;;;0.60;0.60;;;;;;;10.00;74.85;99559.94;5115153;28;20043;-65
2023/02/22 00:03:50;;;;;;;0.95;0.95;;;;;;;10.00;75.03;99565.03;5114915;28;20059;-65
2023/02/22 00:06:23;;;;;;;0.50;0.50;;;;;;;9.99;74.96;99563.31;5114735;28;20062;-65
2023/02/22 00:08:54;;;;;;;0.50;0.50;;;;;;;10.00;74.98;99560.78;5115002;28;20043;-64
2023/02/22 00:11:23;;;;;;;0.75;0.70;;;;;;;10.02;74.61;99565.88;5114582;28;20047;-64
2023/02/22 00:13:55;;;;;;;0.87;0.83;;;;;;;9.99;74.93;99559.09;5114519;28;20040;-65
2023/02/22 00:16:25;;;;;;;1.27;1.17;;;;;;;9.98;74.73;99562.47;5114541;28;20101;-65
2023/02/22 00:18:54;;;;;;;0.30;0.30;;;;;;;10.00;74.78;99565.03;5114504;28;20086;-65
2023/02/22 00:21:23;;;;;;;0.73;0.73;;;;;;;9.98;74.95;99564.19;5114498;28;20040;-65
2023/02/22 00:23:53;;;;;;;0.50;0.50;;;;;;;9.99;74.95;99566.72;5114396;28;20042;-65
2023/02/22 00:26:22;;;;;;;0.40;0.40;;;;;;;9.99;75.11;99569.28;5114348;28;20054;-65
2023/02/22 00:28:55;;;;;;;0.40;0.40;;;;;;;9.99;75.23;99558.22;5114933;28;20040;-65
2023/02/22 00:31:25;;;;;;;0.40;0.40;;;;;;;9.99;75.02;99558.22;5114209;28;20051;-64
2023/02/22 00:33:53;;;;;;;0.60;0.60;;;;;;;9.98;75.14;99559.09;5114560;28;20039;-65
2023/02/22 00:36:22;;;;;;;0.30;0.30;;;;;;;9.98;74.79;99566.75;5114143;28;20126;-65
2023/02/22 00:38:51;;;;;;;0.40;0.35;;;;;;;9.99;75.17;99563.31;5113352;28;20127;-65
2023/02/22 00:41:20;;;;;;;1.30;1.20;;;;;;;9.99;75.17;99564.19;5114159;28;20118;-65
2023/02/22 00:43:51;;;;;;;1.20;1.10;;;;;;;9.99;74.75;99563.31;5113278;28;20069;-65
2023/02/22 00:46:21;;;;;;;0.50;0.50;;;;;;;9.99;74.63;99563.31;5112904;28;20040;-65
2023/02/22 00:48:50;;;;;;;0.30;0.30;;;;;;;10.00;74.97;99565.03;5114073;28;20044;-65
2023/02/22 00:51:19;;;;;;;0.63;0.63;;;;;;;9.98;75.06;99562.47;5114557;28;20485;-65
2023/02/22 00:53:48;;;;;;;0.22;0.22;;;;;;;10.00;75.12;99559.94;5113986;28;20032;-65
2023/02/22 00:56:17;;;;;;;0.57;0.55;;;;;;;10.00;75.40;99560.78;5113755;28;20036;-65
2023/02/22 00:58:46;;;;;;;1.20;0.77;;;;;;;10.00;75.50;99565.03;5114258;28;20212;-65
2023/02/22 01:01:14;;;;;;;0.60;0.60;;;;;;;10.00;75.12;99565.03;5113087;28;20063;-65
2023/02/22 01:03:45;;;;;;;4.75;1.55;;;;;;;9.98;75.38;99561.66;5113935;28;20082;-64
2023/02/22 01:06:14;;;;;;;0.60;0.50;;;;;;;9.98;75.37;99566.75;5113036;28;20494;-65
2023/02/22 01:08:45;;;;;;;0.57;0.57;;;;;;;9.96;75.67;99563.31;5113850;28;20044;-65
2023/02/22 01:11:16;;;;;;;1.67;1.08;;;;;;;9.97;75.56;99559.94;5114189;28;20040;-65
2023/02/22 01:13:46;;;;;;;1.60;1.50;;;;;;;9.94;75.85;99557.38;5113791;28;20050;-65
2023/02/22 01:16:15;;;;;;;6.15;1.38;;;;;;;9.93;76.54;99563.34;5113785;28;20477;-65
2023/02/22 01:18:45;;;;;;;1.50;1.33;;;;;;;9.91;76.24;99554.84;5113790;28;20135;-64
2023/02/22 01:21:14;;;;;;;0.52;0.52;;;;;;;9.88;75.98;99560.78;5113766;28;20337;-65
2023/02/22 01:23:45;;;;;;;0.63;0.63;;;;;;;9.87;76.22;99560.78;5114065;28;20040;-64
2023/02/22 01:26:15;;;;;;;1.38;1.27;;;;;;;9.83;76.86;99561.63;5113718;28;20101;-65
2023/02/22 01:28:43;;;;;;;0.53;0.53;;;;;;;9.80;76.63;99561.63;5114489;28;20035;-65
2023/02/22 01:31:12;;;;;;;1.38;1.27;;;;;;;9.79;76.62;99560.78;5112444;28;20043;-65
2023/02/22 01:33:45;;;;;;;1.05;0.95;;;;;;;9.76;76.99;99549.75;5113582;28;20155;-65
2023/02/22 01:36:15;;;;;;;1.67;1.52;;;;;;;9.76;77.17;99549.75;5113689;28;20379;-65
2023/02/22 01:38:44;;;;;;;0.57;0.55;;;;;;;9.75;77.19;99563.31;5112378;28;20066;-65
2023/02/22 01:41:17;;;;;;;0.65;0.65;;;;;;;9.71;77.23;99556.53;5113770;28;20425;-64
2023/02/22 01:43:46;;;;;;;1.25;1.15;;;;;;;9.62;76.91;99551.44;5113581;28;20044;-65
2023/02/22 01:46:24;;;;;;;0.60;0.60;;;;;;;9.55;77.26;99558.19;5113867;28;20122;-65
2023/02/22 01:49:00;;;;;;;0.55;0.55;;;;;;;9.49;76.93;99557.34;5113582;28;20122;-64
2023/02/22 01:51:36;;;;;;;1.20;1.10;;;;;;;9.37;76.99;99556.50;5113836;28;20044;-65
2023/02/22 01:54:12;;;;;;;1.83;1.25;;;;;;;9.27;77.53;99548.81;5112220;28;20110;-65
2023/02/22 01:56:49;;;;;;;0.55;0.55;;;;;;;9.17;77.82;99557.28;5115428;28;20493;-64
2023/02/22 01:59:22;;;;;;;1.48;1.00;;;;;;;9.05;77.27;99558.09;5117168;28;20489;-65
2023/02/22 02:01:51;;;;;;;0.40;0.40;;;;;;;8.96;77.76;99552.13;5117083;28;20043;-65
2023/02/22 02:04:24;;;;;;;0.77;0.75;;;;;;;8.91;77.48;99559.75;5117354;28;20451;-65
2023/02/22 02:07:01;;;;;;;0.52;0.52;;;;;;;8.87;78.88;99568.22;5117058;28;20048;-65
2023/02/22 02:09:38;;;;;;;0.57;0.57;;;;;;;8.81;78.57;99563.09;5116435;28;20070;-65
2023/02/22 02:12:10;;;;;;;0.73;0.73;;;;;;;8.79;78.88;99567.31;5115716;28;20052;-65
2023/02/22 02:14:41;;;;;;;0.95;0.93;;;;;;;8.78;79.46;99573.28;5116818;28;20044;-65
2023/02/22 02:17:13;;;;;;;0.65;0.65;;;;;;;8.75;79.22;99573.25;5115960;28;20044;-65
2023/02/22 02:19:54;;;;;;;0.85;0.77;;;;;;;8.81;79.34;99572.41;5116718;28;20044;-65
2023/02/22 02:22:32;;;;;;;0.40;0.40;;;;;;;8.93;80.20;99572.47;5116702;27;20044;-66
2023/02/22 02:25:37;;;;;;;0.33;0.33;;;;;;;9.00;80.00;99569.94;5116729;27;20126;-65
2023/02/22 02:28:30;;;;;;;0.52;0.52;;;;;;;9.01;80.42;99566.56;5098692;28;20696;-65
2023/02/22 02:31:20;;;;;;;0.30;0.30;;;;;;;9.02;80.38;99563.16;5116564;28;20126;-64
2023/02/22 02:33:57;;;;;;;0.60;0.60;;;;;;;8.99;80.72;99562.31;5115263;28;20050;-65
2023/02/22 02:36:32;;;;;;;0.45;0.45;;;;;;;8.98;80.42;99556.38;5115309;28;20067;-65
2023/02/22 02:39:09;;;;;;;0.30;0.30;;;;;;;8.96;80.75;99558.06;5116456;28;20451;-65
2023/02/22 02:41:45;;;;;;;0.60;0.60;;;;;;;8.96;80.49;99547.88;5115225;28;20051;-65
2023/02/22 02:44:22;;;;;;;0.60;0.60;;;;;;;8.98;80.88;99551.28;5116662;28;20093;-64
2023/02/22 02:47:00;;;;;;;1.27;1.17;;;;;;;9.00;80.48;99549.59;5115396;28;20044;-65
2023/02/22 02:49:36;;;;;;;0.47;0.47;;;;;;;9.04;80.50;99556.41;5116534;28;20276;-65
2023/02/22 02:52:11;;;;;;;0.73;0.73;;;;;;;9.04;80.67;99556.41;5116143;28;20051;-66
2023/02/22 02:54:41;;;;;;;1.48;1.38;;;;;;;9.01;80.99;99553.84;5115159;28;20036;-65
2023/02/22 02:57:10;;;;;;;0.85;0.73;;;;;;;8.99;81.37;99552.13;5114892;28;20070;-65
2023/02/22 02:59:39;;;;;;;0.75;0.75;;;;;;;8.95;81.01;99546.16;5116002;28;20043;-65
2023/02/22 03:02:20;;;;;;;0.50;0.50;;;;;;;8.91;80.96;99554.66;5115980;28;20074;-65
2023/02/22 03:05:07;;;;;;;0.50;0.50;;;;;;;8.87;80.88;99544.44;5115862;28;20621;-65
2023/02/22 03:07:56;;;;;;;0.60;0.60;;;;;;;8.82;81.23;99541.91;5115020;27;20048;-66
2023/02/22 03:10:44;;;;;;;0.30;0.30;;;;;;;8.77;81.69;99546.97;5116178;28;20048;-66
2023/02/22 03:13:22;;;;;;;0.30;0.30;;;;;;;8.74;80.89;99551.19;5114418;28;20101;-65
2023/02/22 03:16:01;;;;;;;0.73;0.73;;;;;;;8.69;81.64;99552.84;5115717;28;20062;-65
2023/02/22 03:18:41;;;;;;;0.65;0.65;;;;;;;8.62;80.68;99554.53;5114780;28;20114;-64
2023/02/22 03:21:22;;;;;;;0.60;0.60;;;;;;;8.59;81.05;99558.75;5114711;28;20566;-65
2023/02/22 03:24:01;;;;;;;0.20;0.20;;;;;;;8.54;81.60;99562.97;5115491;28;20040;-65
2023/02/22 03:26:35;;;;;;;0.75;0.73;;;;;;;8.50;81.18;99561.22;5114602;28;20508;-64
2023/02/22 03:29:08;;;;;;;1.25;1.15;;;;;;;8.46;81.55;99559.53;5115473;27;20052;-64
2023/02/22 03:31:42;;;;;;;1.50;1.40;;;;;;;8.42;81.97;99558.63;5115433;28;20048;-64
2023/02/22 03:34:15;;;;;;;0.52;0.52;;;;;;;8.38;81.62;99571.34;5115510;28;20080;-65
2023/02/22 03:36:54;;;;;;;1.08;0.98;;;;;;;8.35;82.24;99561.16;5115593;28;20050;-65
2023/02/22 03:39:29;;;;;;;0.65;0.63;;;;;;;8.33;81.70;99562.81;5115345;28;20497;-65
2023/02/22 03:42:06;;;;;;;0.57;0.57;;;;;;;8.31;81.68;99559.41;5115453;28;20447;-65
2023/02/22 03:44:40;;;;;;;0.35;0.35;;;;;;;8.26;81.56;99563.59;5115301;28;20062;-65
2023/02/22 03:47:14;;;;;;;0.40;0.40;;;;;;;8.24;81.03;99557.66;5113915;28;20047;-65
2023/02/22 03:49:48;;;;;;;0.22;0.22;;;;;;;8.18;82.03;99557.63;5114186;28;20043;-65
2023/02/22 03:52:19;;;;;;;0.40;0.40;;;;;;;8.11;81.92;99562.66;5113841;28;20051;-65
2023/02/22 03:54:48;;;;;;;0.40;0.40;;;;;;;8.01;81.88;99565.97;5113658;28;20047;-64
2023/02/22 03:57:23;;;;;;;0.50;0.50;;;;;;;7.97;81.88;99564.25;5114037;28;20398;-65
2023/02/22 04:00:04;;;;;;;0.45;0.43;;;;;;;7.92;81.56;99565.03;5113968;28;20304;-65
2023/02/22 04:02:40;;;;;;;0.30;0.30;;;;;;;7.91;81.50;99559.13;5115101;28;20051;-65
2023/02/22 04:05:14;;;;;;;2.72;1.02;;;;;;;7.84;81.47;99562.47;5114680;28;20047;-64
2023/02/22 04:07:45;;;;;;;1.55;1.27;;;;;;;7.83;82.59;99564.97;5113591;28;20048;-64
2023/02/22 04:10:16;;;;;;;0.30;0.30;;;;;;;7.70;82.39;99569.09;5114941;27;20504;-65
2023/02/22 04:12:44;;;;;;;;;;;;;;;7.67;81.96;99574.16;5114710;28;20040;-64
2023/02/22 04:15:18;;;;;;;0.50;0.50;;;;;;;7.61;81.94;99576.63;5114487;28;19919;-64
2023/02/22 04:17:51;;;;;;;0.50;0.50;;;;;;;7.55;81.89;99584.19;5114416;28;20051;-65
2023/02/22 04:20:24;;;;;;;0.70;0.70;;;;;;;7.53;81.86;99585.88;5112856;28;20047;-65
2023/02/22 04:22:59;;;;;;;0.55;0.47;;;;;;;7.50;81.65;99585.00;5114778;28;20074;-65
2023/02/22 04:25:29;;;;;;;0.43;0.43;;;;;;;7.38;82.47;99573.03;5114403;28;20040;-65
2023/02/22 04:27:58;;;;;;;0.30;0.30;;;;;;;7.35;82.00;99580.59;5114625;28;20040;-65
2023/02/22 04:30:42;;;;;;;1.20;0.77;;;;;;;7.29;82.38;99580.56;5114318;28;20082;-65
2023/02/22 04:33:15;;;;;;;1.30;0.98;;;;;;;7.27;82.28;99579.69;5113382;28;20378;-65
2023/02/22 04:35:44;;;;;;;1.02;1.02;;;;;;;7.24;82.45;99574.56;5114158;28;20035;-64
2023/02/22 04:38:15;;;;;;;0.73;0.73;;;;;;;7.21;81.91;99582.16;5114111;28;20055;-64
2023/02/22 04:40:44;;;;;;;0.65;0.65;;;;;;;7.11;82.30;99578.66;5114181;28;20062;-65
2023/02/22 04:43:14;;;;;;;0.73;0.70;;;;;;;6.98;82.56;99588.66;5114164;27;20052;-64
2023/02/22 04:45:43;;;;;;;0.95;0.90;;;;;;;6.92;82.60;99588.56;5113179;28;20412;-65
2023/02/22 04:48:12;;;;;;;0.50;0.50;;;;;;;6.86;82.73;99586.81;5112756;28;20036;-64
2023/02/22 04:50:41;;;;;;;0.50;0.50;;;;;;;6.88;82.72;99587.69;5113145;28;20553;-65
2023/02/22 04:53:10;;;;;;;2.17;1.97;;;;;;;6.89;82.92;99598.66;5112776;28;20067;-65
2023/02/22 04:55:40;;;;;;;1.75;1.58;;;;;;;6.86;83.42;99598.66;5112833;28;20051;-65
2023/02/22 04:58:11;;;;;;;1.65;1.55;;;;;;;6.85;83.35;99596.94;5114189;28;20047;-64
2023/02/22 05:00:40;;;;;;;4.43;3.33;;;;;;;6.87;83.57;99595.25;5113072;28;20043;-65
2023/02/22 05:03:09;;;;;;;2.00;1.80;;;;;;;6.84;83.61;99597.78;5112787;28;20191;-65
2023/02/22 05:05:38;;;;;;;1.45;0.98;;;;;;;6.80;84.21;99596.03;5113873;28;20280;-65
2023/02/22 05:08:07;;;;;;;1.48;1.38;;;;;;;6.80;83.83;99601.09;5114118;28;20408;-65
2023/02/22 05:10:36;;;;;;;7.07;4.17;;;;;;;6.74;84.41;99595.09;5114106;28;20430;-64
2023/02/22 05:13:06;;;;;;;7.72;4.95;;;;;;;6.64;83.72;99603.44;5113843;28;20043;-65
2023/02/22 05:15:35;;;;;;;3.58;2.80;;;;;;;6.60;83.77;99599.16;5113924;28;20059;-65
2023/02/22 05:18:04;;;;;;;3.27;2.57;;;;;;;6.51;83.88;99596.50;5114076;28;20401;-65
2023/02/22 05:20:35;;;;;;;1.40;1.30;;;;;;;6.45;83.42;99600.63;5113378;28;20051;-65
2023/02/22 05:23:05;;;;;;;2.97;2.78;;;;;;;6.39;83.73;99603.91;5113803;28;20070;-65
2023/02/22 05:25:33;;;;;;;;;;;;;;;6.33;83.65;99601.31;5114118;28;20126;-65
2023/02/22 05:28:05;;;;;;;1.92;1.27;;;;;;;6.29;83.98;99601.22;5113617;28;20010;-65
2023/02/22 05:30:38;;;;;;;1.73;1.02;;;;;;;6.26;84.07;99608.78;5115505;28;20047;-64
2023/02/22 05:33:08;;;;;;;1.33;1.23;;;;;;;6.17;83.94;99599.34;5117731;28;20093;-65
2023/02/22 05:35:37;;;;;;;0.35;0.35;;;;;;;6.14;83.96;99609.47;5117562;28;20104;-65
2023/02/22 05:38:07;;;;;;;0.80;0.80;;;;;;;6.12;84.40;99600.13;5117845;28;20058;-65
2023/02/22 05:40:35;;;;;;;;;;;;;;;6.00;84.23;99610.91;5117810;28;20047;-65
2023/02/22 05:43:04;;;;;;;3.28;2.10;;;;;;;5.93;84.08;99604.88;5117377;28;19926;-64
2023/02/22 05:45:33;;;;;;;1.30;1.20;;;;;;;6.01;84.13;99612.63;5117379;28;20044;-65
2023/02/22 05:48:03;;;;;;;1.38;0.82;;;;;;;5.99;84.19;99604.16;5117626;28;20059;-65
2023/02/22 05:50:33;;;;;;;1.65;1.55;;;;;;;5.99;84.35;99614.28;5117218;28;20059;-65
2023/02/22 05:53:04;;;;;;;1.20;0.95;;;;;;;5.96;84.68;99620.16;5117131;27;20040;-65
2023/02/22 05:55:33;;;;;;;0.52;0.52;;;;;;;5.88;84.17;99625.88;5117253;28;20122;-65
2023/02/22 05:58:04;;;;;;;0.80;0.77;;;;;;;5.83;84.08;99632.56;5117532;28;20116;-64
2023/02/22 06:00:33;;;;;;;1.27;1.17;;;;;;;5.81;84.42;99631.66;5117160;28;20054;-65
2023/02/22 06:03:05;;;;;;;2.67;2.47;;;;;;;5.84;84.47;99629.19;5117387;28;20452;-64
2023/02/22 06:05:34;;;;;;;1.95;1.80;;;;;;;5.88;84.78;99636.88;5117039;28;20089;-65
2023/02/22 06:08:04;;;;;;;2.53;2.33;;;;;;;5.93;85.11;99631.88;5116943;28;20549;-64
2023/02/22 06:10:32;;;;;;;;;;;;;;;5.98;85.69;99633.69;5117330;28;20497;-64
2023/02/22 06:13:03;;;;;;;1.77;1.38;;;;;;;6.02;85.11;99639.66;5117209;28;19923;-65
2023/02/22 06:15:32;;;;;;;2.35;2.15;;;;;;;6.04;85.56;99643.06;5116770;28;20043;-65
2023/02/22 06:18:02;;;;;;;3.20;1.10;;;;;;;6.08;85.70;99643.16;5116830;28;20040;-65
2023/02/22 06:20:32;;;;;;;2.67;2.47;;;;;;;6.13;85.52;99650.81;5116546;28;20488;-65
2023/02/22 06:23:01;;;;;;;1.60;1.50;;;;;;;6.19;86.04;99653.44;5116710;28;20576;-65
2023/02/22 06:25:31;;;;;;;0.50;0.50;;;;;;;6.27;86.20;99656.09;5116604;28;20040;-65
2023/02/22 06:28:00;;;;;;;1.80;1.25;;;;;;;6.33;86.39;99654.53;5116611;28;20295;-65
2023/02/22 06:30:30;;;;;;;1.08;0.93;;;;;;;6.32;86.27;99660.41;5116853;28;20494;-65
2023/02/22 06:32:59;;;;;;;2.13;1.92;;;;;;;6.29;85.92;99660.34;5116492;28;20130;-65
2023/02/22 06:35:29;;;;;;;1.77;1.60;;;;;;;6.30;86.54;99661.22;5116616;28;20105;-65
2023/02/22 06:37:58;;;;;;;1.95;1.83;;;;;;;6.33;86.57;99664.66;5116380;28;20048;-65
2023/02/22 06:40:28;;;;;;;0.73;0.73;;;;;;;6.41;86.24;99670.69;5116421;27;20074;-65
2023/02/22 06:42:57;;;;;;;;;;;;;;;6.49;86.93;99679.28;5115412;28;20393;-64
2023/02/22 06:45:25;;;;;;;1.30;1.23;;;;;;;6.56;87.20;99670.06;5116269;28;19920;-65
2023/02/22 06:47:55;;;;;;;1.58;1.48;;;;;;;6.62;86.51;99678.63;5116132;28;20031;-65
2023/02/22 06:50:27;;;;;;;1.73;1.63;;;;;;;6.75;87.17;99677.97;5116486;28;20134;-64
2023/02/22 06:52:58;;;;;;;1.20;1.10;;;;;;;6.88;87.38;99683.22;5115902;28;20074;-65
2023/02/22 06:55:29;;;;;;;2.78;2.15;;;;;;;7.00;87.47;99683.41;5116011;28;20046;-65
2023/02/22 06:57:58;;;;;;;1.98;1.88;;;;;;;7.17;87.26;99692.09;5115972;28;20051;-65
2023/02/22 07:00:29;;;;;;;4.60;3.70;;;;;;;7.30;87.20;99684.63;5116488;28;20386;-65
2023/02/22 07:02:58;;;;;;;3.97;3.05;;;;;;;7.40;87.28;99685.59;5116212;28;20047;-65
2023/02/22 07:05:28;;;;;;;5.88;3.88;;;;;;;7.50;87.80;99691.63;5115894;28;20043;-65
2023/02/22 07:08:04;;;;;;;4.32;2.88;;;;;;;7.59;87.03;99682.44;5115724;28;20062;-65
2023/02/22 07:10:34;;;;;;;7.43;2.78;;;;;;;7.67;87.81;99691.00;5115986;28;20040;-65
2023/02/22 07:13:04;;;;;;;1.80;1.70;;;;;;;7.75;86.68;99689.38;5115723;27;20047;-64
2023/02/22 07:15:34;;;;;;;2.55;2.35;;;;;;;7.77;86.71;99687.72;5116167;28;20370;-65
2023/02/22 07:18:04;;;;;;;2.38;1.60;;;;;;;7.86;87.21;99700.53;5115589;28;20047;-65
2023/02/22 07:20:33;;;;;;;2.50;2.05;;;;;;;7.92;86.98;99692.94;5115302;28;20056;-65
2023/02/22 07:23:04;;;;;;;6.25;2.15;;;;;;;8.01;86.87;99687.94;5115845;28;20164;-65
2023/02/22 07:25:33;;;;;;;4.15;2.30;;;;;;;8.05;86.73;99689.69;5115450;28;20477;-64
2023/02/22 07:28:01;;;;;;;1.50;1.40;;;;;;;8.11;86.35;99689.75;5115445;28;20213;-64
2023/02/22 07:30:32;;;;;;;6.32;4.55;;;;;;;8.17;86.18;99678.78;5115765;28;20036;-64
2023/02/22 07:33:03;;;;;;;2.42;1.85;;;;;;;8.24;86.08;99679.69;5115414;28;20055;-64
2023/02/22 07:35:36;;;;;;;2.65;2.45;;;;;;;8.31;85.92;99681.47;5115017;28;20051;-64
2023/02/22 07:38:08;;;;;;;3.30;2.40;;;;;;;8.36;85.65;99680.66;5115496;28;20046;-64
2023/02/22 07:40:38;;;;;;;2.72;2.40;;;;;;;8.44;85.17;99683.28;5115187;28;20069;-65
2023/02/22 07:43:15;;;;;;;1.48;1.38;;;;;;;8.51;85.82;99679.94;5115400;28;20044;-64
2023/02/22 07:45:45;;;;;;;2.78;1.92;;;;;;;8.54;86.19;99674.88;5115109;28;20051;-65
2023/02/22 07:48:14;;;;;;;2.08;1.88;;;;;;;8.60;85.49;99675.78;5115245;28;20428;-65
2023/02/22 07:50:45;;;;;;;2.17;1.95;;;;;;;8.69;85.16;99685.16;5114959;28;20075;-65
2023/02/22 07:53:17;;;;;;;2.20;2.00;;;;;;;8.76;85.17;99682.66;5114517;28;20042;-66
2023/02/22 07:55:49;;;;;;;3.03;2.25;;;;;;;8.84;85.27;99674.22;5113606;28;20067;-64
2023/02/22 07:58:22;;;;;;;5.18;3.33;;;;;;;8.89;85.45;99675.97;5106722;28;20043;-65
2023/02/22 08:00:51;;;;;;;1.50;1.40;;;;;;;8.96;85.25;99675.16;5094712;28;20059;-64
2023/02/22 08:03:22;;;;;;;1.77;1.40;;;;;;;9.03;84.91;99676.03;5094272;28;20089;-65
2023/02/22 08:05:53;;;;;;;1.17;1.08;;;;;;;9.10;84.05;99677.75;5093471;28;20071;-65
2023/02/22 08:08:23;;;;;;;12.88;2.75;;;;;;;9.16;84.62;99673.56;5094131;28;20047;-64
2023/02/22 08:10:53;;;;;;;2.25;1.48;;;;;;;9.29;84.25;99670.22;5094184;28;20055;-64
2023/02/22 08:13:22;;;;;;;3.17;2.22;;;;;;;9.40;83.70;99673.66;5094276;28;20112;-64
2023/02/22 08:15:53;;;;;;;1.50;1.23;;;;;;;9.49;83.31;99680.47;5094570;28;20061;-64
2023/02/22 08:18:23;;;;;;;5.82;3.83;;;;;;;9.63;83.78;99672.88;5093969;28;20052;-65
2023/02/22 08:20:52;;;;;;;;;;;;;;;9.60;83.31;99680.53;5100766;28;20051;-65
2023/02/22 08:23:25;;;;;;;0.43;0.43;;;;;;;9.57;83.16;99680.50;5098359;28;20354;-64
2023/02/22 08:25:55;;;;;;;2.40;1.20;;;;;;;9.61;82.04;99677.13;5093896;28;20055;-65
2023/02/22 08:28:24;;;;;;;1.00;0.93;;;;;;;9.69;82.45;99685.66;5093879;28;20086;-65
2023/02/22 08:30:53;;;;;;;1.42;1.33;;;;;;;9.74;81.56;99679.69;5094184;28;20048;-65
2023/02/22 08:33:22;;;;;;;1.15;1.05;;;;;;;9.75;81.24;99675.44;5106350;28;20040;-67
2023/02/22 08:35:52;;;;;;;;;;;;;;;9.75;81.14;99681.41;5094066;28;20506;-65
2023/02/22 08:38:25;;;;;;;0.57;0.57;;;;;;;9.75;80.90;99675.44;5093814;28;20003;-65
2023/02/22 08:40:54;;;;;;;1.17;1.05;;;;;;;9.79;79.48;99674.63;5093365;28;20044;-65
2023/02/22 08:43:23;;;;;;;0.85;0.85;;;;;;;9.86;79.76;99681.44;5093741;28;20041;-66
2023/02/22 08:45:53;;;;;;;0.60;0.60;;;;;;;9.91;78.95;99678.03;5093618;28;20056;-66
2023/02/22 08:48:25;;;;;;;1.63;1.25;;;;;;;9.79;78.58;99672.09;5092593;28;20048;-65
2023/02/22 08:50:53;;;;;;;3.22;2.85;;;;;;;9.78;77.50;99670.38;5092967;28;20062;-65
2023/02/22 08:53:24;;;;;;;2.22;1.58;;;;;;;9.85;78.11;99677.19;5093780;28;20143;-66
2023/02/22 08:55:53;;;;;;;0.75;0.75;;;;;;;9.81;77.43;99670.38;5093564;28;20056;-66
2023/02/22 08:58:22;;;;;;;;;;;;;;;9.83;76.29;99678.88;5093930;28;20097;-65
2023/02/22 09:00:51;;;;;;;0.97;0.90;;;;;;;9.94;76.41;99677.19;5093486;28;19974;-65
2023/02/22 09:03:20;;;;;;;1.85;0.85;;;;;;;10.00;76.10;99677.22;5093440;28;20036;-65
2023/02/22 09:05:49;;;;;;;0.47;0.47;;;;;;;10.04;75.87;99673.81;5095245;28;20040;-65
2023/02/22 09:08:18;;;;;;;0.77;0.77;;;;;;;10.08;75.72;99675.50;5098307;28;20398;-66
2023/02/22 09:10:50;;;;;;;0.22;0.22;;;;;;;10.12;75.15;99682.38;5097768;28;20048;-65
2023/02/22 09:13:19;;;;;;;1.02;0.93;;;;;;;10.16;75.28;99678.97;5097369;28;20139;-65
2023/02/22 09:15:48;;;;;;;0.50;0.50;;;;;;;10.23;75.02;99685.75;5097509;28;20478;-66
2023/02/22 09:18:16;;;;;;;0.60;0.60;;;;;;;10.30;74.26;99682.38;5096257;28;20035;-65
2023/02/22 09:20:45;;;;;;;1.75;1.65;;;;;;;10.31;74.36;99686.63;5097291;28;20520;-65
2023/02/22 09:23:14;;;;;;;0.45;0.45;;;;;;;10.31;73.46;99681.53;5097330;28;20044;-65
2023/02/22 09:25:43;;;;;;;0.65;0.65;;;;;;;10.39;73.25;99690.00;5097632;28;20444;-65
2023/02/22 09:28:13;;;;;;;0.70;0.70;;;;;;;10.41;72.92;99685.78;5097259;28;20308;-64
2023/02/22 09:30:43;;;;;;;0.43;0.43;;;;;;;10.42;72.21;99682.38;5097991;28;20058;-64
2023/02/22 09:33:14;;;;;;;2.42;1.13;;;;;;;10.34;71.92;99693.44;5097265;28;20123;-67
2023/02/22 09:35:45;;;;;;;0.38;0.38;;;;;;;10.26;71.81;99684.91;5100590;28;20040;-66
2023/02/22 09:38:16;;;;;;;1.08;0.90;;;;;;;10.25;71.88;99684.06;5096963;28;20044;-66
2023/02/22 09:40:50;;;;;;;0.90;0.90;;;;;;;10.20;72.33;99675.56;5106764;28;20058;-66
2023/02/22 09:43:34;;;;;;;0.40;0.40;;;;;;;10.20;72.72;99679.81;5097063;28;20123;-66
2023/02/22 09:46:17;;;;;;;0.75;0.75;;;;;;;10.20;72.73;99675.56;5097044;28;20044;-66
2023/02/22 09:48:58;;;;;;;0.57;0.57;;;;;;;10.27;72.81;99681.53;5097043;28;20067;-66
2023/02/22 09:51:34;;;;;;;0.98;0.95;;;;;;;10.35;72.84;99685.78;5097235;28;20047;-66
2023/02/22 09:54:06;;;;;;;0.28;0.28;;;;;;;10.44;72.34;99680.66;5097187;28;20452;-66
2023/02/22 09:56:35;;;;;;;1.40;0.93;;;;;;;10.55;72.47;99681.53;5095607;28;20383;-66
2023/02/22 09:59:08;;;;;;;0.30;0.30;;;;;;;10.65;72.51;99684.91;5096735;28;20123;-66
2023/02/22 10:01:42;;;;;;;0.38;0.38;;;;;;;10.73;72.45;99678.94;5097041;28;20055;-66
2023/02/22 10:04:19;;;;;;;1.98;1.27;;;;;;;10.82;72.16;99682.34;5096707;28;20052;-66
2023/02/22 10:07:04;;;;;;;0.60;0.60;;;;;;;10.83;71.94;99674.66;5096956;28;20473;-66
2023/02/22 10:09:41;;;;;;;0.60;0.60;;;;;;;10.86;71.51;99668.69;5097707;28;20044;-65
2023/02/22 10:12:14;;;;;;;0.70;0.70;;;;;;;10.89;71.38;99668.72;5096536;28;20048;-66
2023/02/22 10:15:11;;;;;;;1.63;0.57;;;;;;;10.92;70.86;99668.72;5096779;28;20043;-65
2023/02/22 10:17:50;;;;;;;0.65;0.65;;;;;;;10.92;70.96;99663.59;5095751;28;20093;-66
2023/02/22 10:20:28;;;;;;;0.70;0.70;;;;;;;10.99;71.12;99663.56;5115425;28;20052;-66
2023/02/22 10:23:10;;;;;;;0.77;0.77;;;;;;;11.08;70.89;99660.13;5116538;28;20481;-66
2023/02/22 10:25:42;;;;;;;2.95;1.77;;;;;;;11.08;70.81;99670.34;5116682;28;20142;-66
2023/02/22 10:28:18;;;;;;;0.60;0.60;;;;;;;11.07;70.33;99664.41;5116951;28;20471;-66
2023/02/22 10:30:55;;;;;;;0.85;0.82;;;;;;;11.05;70.16;99662.69;5116804;28;20053;-65
2023/02/22 10:33:28;;;;;;;1.00;1.00;;;;;;;10.96;70.01;99662.72;5116697;28;20419;-66
2023/02/22 10:35:56;;;;;;;1.63;1.08;;;;;;;10.97;69.77;99664.41;5116838;28;20142;-66
2023/02/22 10:38:27;;;;;;;0.40;0.40;;;;;;;11.11;69.87;99665.25;5116164;28;20035;-66
2023/02/22 10:41:00;;;;;;;0.63;0.63;;;;;;;11.19;69.81;99658.38;5111262;28;20040;-66
2023/02/22 10:43:29;;;;;;;0.65;0.65;;;;;;;11.24;69.70;99666.88;5105041;28;20066;-66
2023/02/22 10:46:02;;;;;;;1.88;1.30;;;;;;;11.31;69.89;99663.44;5116250;28;20047;-66
2023/02/22 10:48:35;;;;;;;0.95;0.90;;;;;;;11.35;69.81;99660.03;5106497;28;20048;-65
2023/02/22 10:51:07;;;;;;;1.50;0.90;;;;;;;11.34;69.80;99660.91;5095717;28;20123;-66
2023/02/22 10:53:37;;;;;;;1.48;1.20;;;;;;;11.35;70.23;99655.75;5096083;28;20074;-66
2023/02/22 10:56:10;;;;;;;1.30;0.95;;;;;;;11.34;70.10;99659.19;5095927;28;20113;-65
2023/02/22 10:58:49;;;;;;;1.52;0.80;;;;;;;11.36;69.91;99659.19;5095532;28;20037;-66
2023/02/22 11:01:22;;;;;;;0.68;0.68;;;;;;;11.37;69.68;99645.56;5095532;28;20047;-65
2023/02/22 11:04:00;;;;;;;0.45;0.45;;;;;;;11.41;69.57;99645.53;5105443;28;20485;-66
2023/02/22 11:06:30;;;;;;;1.30;0.77;;;;;;;11.45;69.51;99646.34;5114000;28;20545;-66
2023/02/22 11:09:11;;;;;;;2.17;1.40;;;;;;;11.46;69.07;99642.94;5095325;28;20059;-66
2023/02/22 11:11:42;;;;;;;0.45;0.45;;;;;;;11.48;68.98;99631.00;5095409;28;20054;-66
2023/02/22 11:14:12;;;;;;;0.73;0.65;;;;;;;11.48;68.76;99635.25;5094755;28;20044;-66
2023/02/22 11:16:47;;;;;;;1.35;1.25;;;;;;;11.52;68.78;99632.69;5093975;28;20048;-66
2023/02/22 11:19:22;;;;;;;0.45;0.45;;;;;;;11.59;68.39;99624.13;5095316;28;20054;-65
2023/02/22 11:21:53;;;;;;;1.42;1.33;;;;;;;11.54;67.95;99620.75;5095154;28;20561;-65
2023/02/22 11:24:25;;;;;;;0.20;0.20;;;;;;;11.49;67.68;99622.50;5095196;28;20040;-66
2023/02/22 11:27:02;;;;;;;1.63;1.40;;;;;;;11.56;67.29;99624.16;5094742;28;20097;-66
2023/02/22 11:29:35;;;;;;;0.70;0.70;;;;;;;11.52;67.23;99619.91;5094778;28;20135;-66
2023/02/22 11:32:21;;;;;;;2.50;1.02;;;;;;;11.48;66.84;99619.94;5095295;28;20068;-65
2023/02/22 11:34:52;;;;;;;0.63;0.50;;;;;;;11.48;66.82;99614.81;5094834;28;20093;-66
2023/02/22 11:37:36;;;;;;;0.40;0.40;;;;;;;11.56;66.35;99602.84;5094849;28;20505;-66
2023/02/22 11:40:20;;;;;;;3.72;1.33;;;;;;;11.60;66.51;99613.06;5094778;28;20044;-66
2023/02/22 11:43:07;;;;;;;1.02;0.70;;;;;;;11.63;66.34;99610.47;5094767;28;20046;-66
2023/02/22 11:45:36;;;;;;;0.68;0.68;;;;;;;11.72;66.52;99604.47;5094715;28;20044;-66
2023/02/22 11:48:22;;;;;;;1.33;1.23;;;;;;;11.82;66.37;99604.41;5094559;28;20052;-66
2023/02/22 11:51:05;;;;;;;1.05;0.63;;;;;;;11.76;65.92;99601.88;5094986;28;20159;-66
2023/02/22 11:53:49;;;;;;;0.43;0.43;;;;;;;11.77;65.56;99601.03;5094629;28;20048;-66
2023/02/22 11:56:24;;;;;;;0.75;0.73;;;;;;;11.62;65.05;99592.56;5113668;28;20039;-66
2023/02/22 11:59:20;;;;;;;0.40;0.40;;;;;;;11.52;64.77;99594.34;5114742;28;20469;-65
2023/02/22 12:01:54;;;;;;;2.15;1.60;;;;;;;11.55;64.75;99596.88;5114467;28;20135;-66
2023/02/22 12:04:51;;;;;;;0.45;0.45;;;;;;;11.54;64.55;99595.19;5114773;28;20047;-66
2023/02/22 12:07:38;;;;;;;0.95;0.88;;;;;;;11.55;64.22;99586.66;5114195;28;20040;-66